Time,TemperatureF,DewpointF,PressureIn,WindDirection,WindDirectionDegrees,WindSpeedMPH,WindSpeedGustMPH,Humidity,HourlyPrecipIn,Conditions,Clouds,dailyrainin,SoftwareType,DateUTC
2013-01-05 00:00:00,30.2,19.9,29.91,West,277,13.8,13.8,65,0.00,CLR,,0.00,WeatherDisplay:10.37,2013-01-05 05:00:00,
2013-01-05 00:02:00,30.2,19.9,29.91,West,277,17.3,17.3,65,0.00,CLR,,0.00,WeatherDisplay:10.37,2013-01-05 05:02:00,
2013-01-05 00:04:00,30.2,19.9,29.91,West,271,13.8,13.8,65,0.00,CLR,,0.00,WeatherDisplay:10.37,2013-01-05 05:04:00,
2013-01-05 00:08:00,30.3,20.0,29.91,WNW,289,12.7,12.7,65,0.00,CLR,,0.00,WeatherDisplay:10.37,2013-01-05 05:08:00,
2013-01-05 00:13:00,30.0,19.7,29.92,West,261,15.0,15.0,65,0.00,CLR,,0.00,WeatherDisplay:10.37,2013-01-05 05:13:00,
2013-01-05 00:18:00,30.0,19.7,29.92,WNW,298,13.8,13.8,65,0.00,CLR,,0.00,WeatherDisplay:10.37,2013-01-05 05:18:00,
2013-01-05 00:23:00,29.9,19.6,29.92,NW,319,12.7,12.7,65,0.00,CLR,,0.00,WeatherDisplay:10.37,2013-01-05 05:23:00,
2013-01-05 00:28:00,29.9,20.0,29.92,WNW,292,16.1,16.1,66,0.00,CLR,,0.00,WeatherDisplay:10.37,2013-01-05 05:28:00,
2013-01-05 00:33:00,29.7,19.8,29.92,West,264,15.0,15.0,66,0.00,CLR,,0.00,WeatherDisplay:10.37,2013-01-05 05:33:00,
2013-01-05 00:38:00,29.8,19.5,29.93,WNW,302,13.8,13.8,65,0.00,CLR,,0.00,WeatherDisplay:10.37,2013-01-05 05:38:00,
2013-01-05 00:43:00,30.0,20.0,29.93,NW,318,17.3,17.3,66,0.00,CLR,,0.00,WeatherDisplay:10.37,2013-01-05 05:43:00,
2013-01-05 00:48:00,29.7,19.8,29.93,NW,305,15.0,15.0,66,0.00,CLR,,0.00,WeatherDisplay:10.37,2013-01-05 05:48:00,
2013-01-05 00:53:00,29.5,19.6,29.93,WNW,298,15.0,15.0,66,0.00,CLR,,0.00,WeatherDisplay:10.37,2013-01-05 05:53:00,
2013-01-05 00:58:00,29.7,19.8,29.93,West,264,12.7,12.7,66,0.00,CLR,,0.00,WeatherDisplay:10.37,2013-01-05 05:58:00,
2013-01-05 01:03:00,29.5,19.6,29.93,WSW,248,20.1,20.1,66,0.00,CLR,,0.00,WeatherDisplay:10.37,2013-01-05 06:03:00,
2013-01-05 01:08:00,29.5,19.6,29.93,SW,236,16.1,16.1,66,0.00,CLR,,0.00,WeatherDisplay:10.37,2013-01-05 06:08:00,
2013-01-05 01:13:00,29.5,19.6,29.94,NW,326,12.7,12.7,66,0.00,CLR,,0.00,WeatherDisplay:10.37,2013-01-05 06:13:00,
2013-01-05 01:18:00,29.3,19.4,29.94,NW,322,13.8,13.8,66,0.00,CLR,,0.00,WeatherDisplay:10.37,2013-01-05 06:18:00,
2013-01-05 01:23:00,29.3,19.4,29.95,WNW,298,13.8,13.8,66,0.00,CLR,,0.00,WeatherDisplay:10.37,2013-01-05 06:23:00,
2013-01-05 01:28:00,29.3,19.7,29.95,West,280,13.8,13.8,67,0.00,CLR,,0.00,WeatherDisplay:10.37,2013-01-05 06:28:00,
2013-01-05 01:33:00,29.2,19.6,29.95,NW,322,12.7,12.7,67,0.00,CLR,,0.00,WeatherDisplay:10.37,2013-01-05 06:33:00,
2013-01-05 01:39:00,29.4,19.8,29.95,West,280,15.0,15.0,67,0.00,CLR,,0.00,WeatherDisplay:10.37,2013-01-05 06:39:00,
2013-01-05 01:44:00,29.3,19.4,29.96,WNW,299,15.0,15.0,66,0.00,CLR,,0.00,WeatherDisplay:10.37,2013-01-05 06:44:00,
2013-01-05 01:49:00,29.3,19.4,29.96,NNW,330,11.5,11.5,66,0.00,CLR,,0.00,WeatherDisplay:10.37,2013-01-05 06:49:00,
2013-01-05 01:54:00,29.2,19.6,29.96,WNW,288,15.0,15.0,67,0.00,CLR,,0.00,WeatherDisplay:10.37,2013-01-05 06:54:00,
2013-01-05 01:59:00,29.1,19.5,29.96,NW,309,11.5,11.5,67,0.00,CLR,,0.00,WeatherDisplay:10.37,2013-01-05 06:59:00,
2013-01-05 02:04:00,29.1,19.5,29.96,WNW,291,15.0,15.0,67,0.00,CLR,,0.00,WeatherDisplay:10.37,2013-01-05 07:04:00,
2013-01-05 02:09:00,29.2,19.6,29.97,North,7,10.4,10.4,67,0.00,CLR,,0.00,WeatherDisplay:10.37,2013-01-05 07:09:00,
2013-01-05 02:14:00,29.5,19.9,29.97,NW,309,6.9,6.9,67,0.00,CLR,,0.00,WeatherDisplay:10.37,2013-01-05 07:14:00,
2013-01-05 02:19:00,29.2,19.6,29.97,WNW,294,17.3,17.3,67,0.00,CLR,,0.00,WeatherDisplay:10.37,2013-01-05 07:19:00,
2013-01-05 02:24:00,29.3,19.7,29.98,WSW,257,16.1,16.1,67,0.00,CLR,,0.00,WeatherDisplay:10.37,2013-01-05 07:24:00,
2013-01-05 02:29:00,29.3,19.7,29.98,NW,306,11.5,11.5,67,0.00,CLR,,0.00,WeatherDisplay:10.37,2013-01-05 07:29:00,
2013-01-05 02:34:00,29.3,20.1,29.98,NW,305,8.1,8.1,68,0.00,CLR,,0.00,WeatherDisplay:10.37,2013-01-05 07:34:00,
2013-01-05 02:39:00,29.1,19.9,29.98,WNW,299,8.1,8.1,68,0.00,CLR,,0.00,WeatherDisplay:10.37,2013-01-05 07:39:00,
2013-01-05 02:44:00,29.1,19.9,29.99,NW,304,8.1,8.1,68,0.00,CLR,,0.00,WeatherDisplay:10.37,2013-01-05 07:44:00,
2013-01-05 02:49:00,29.3,20.1,29.99,NW,304,13.8,13.8,68,0.00,CLR,,0.00,WeatherDisplay:10.37,2013-01-05 07:49:00,
2013-01-05 02:54:00,29.0,19.8,29.99,WNW,287,13.8,13.8,68,0.00,CLR,,0.00,WeatherDisplay:10.37,2013-01-05 07:54:00,
2013-01-05 02:59:00,29.2,20.0,29.99,WNW,288,11.5,11.5,68,0.00,CLR,,0.00,WeatherDisplay:10.37,2013-01-05 07:59:00,
2013-01-05 03:04:00,29.1,19.9,29.99,North,11,11.5,11.5,68,0.00,CLR,,0.00,WeatherDisplay:10.37,2013-01-05 08:04:00,
2013-01-05 03:09:00,29.0,20.1,30.00,West,263,10.4,10.4,69,0.00,CLR,,0.00,WeatherDisplay:10.37,2013-01-05 08:09:00,
2013-01-05 03:14:00,29.4,20.5,30.00,NW,306,8.1,8.1,69,0.00,CLR,,0.00,WeatherDisplay:10.37,2013-01-05 08:14:00,
2013-01-05 03:19:00,29.3,20.4,30.00,WNW,302,8.7,8.7,69,0.00,CLR,,0.00,WeatherDisplay:10.37,2013-01-05 08:19:00,
2013-01-05 03:24:00,29.5,20.6,30.00,NW,306,9.2,9.2,69,0.00,CLR,,0.00,WeatherDisplay:10.37,2013-01-05 08:24:00,
2013-01-05 03:29:00,29.3,20.4,30.00,NW,322,11.5,11.5,69,0.00,CLR,,0.00,WeatherDisplay:10.37,2013-01-05 08:29:00,
2013-01-05 03:34:00,29.4,20.5,30.00,WNW,291,11.5,11.5,69,0.00,CLR,,0.00,WeatherDisplay:10.37,2013-01-05 08:34:00,
2013-01-05 03:39:00,29.6,20.7,30.00,WNW,294,8.1,8.1,69,0.00,CLR,,0.00,WeatherDisplay:10.37,2013-01-05 08:39:00,
2013-01-05 03:44:00,29.4,20.5,30.00,WNW,302,8.1,8.1,69,0.00,CLR,,0.00,WeatherDisplay:10.37,2013-01-05 08:44:00,
2013-01-05 03:49:00,29.6,21.1,30.01,West,272,7.3,7.3,70,0.00,CLR,,0.00,WeatherDisplay:10.37,2013-01-05 08:49:00,
2013-01-05 03:54:00,29.7,21.1,30.01,WNW,284,8.1,8.1,70,0.00,CLR,,0.00,WeatherDisplay:10.37,2013-01-05 08:54:00,
2013-01-05 03:59:00,29.6,21.1,30.01,WNW,284,13.8,13.8,70,0.00,CLR,,0.00,WeatherDisplay:10.37,2013-01-05 08:59:00,
2013-01-05 04:04:00,29.9,21.3,30.01,NW,305,11.5,11.5,70,0.00,CLR,,0.00,WeatherDisplay:10.37,2013-01-05 09:04:00,
2013-01-05 04:09:00,29.9,21.3,30.01,WNW,292,15.0,15.0,70,0.00,CLR,,0.00,WeatherDisplay:10.37,2013-01-05 09:09:00,
2013-01-05 04:14:00,30.0,21.4,30.01,WNW,291,11.5,11.5,70,0.00,CLR,,0.00,WeatherDisplay:10.37,2013-01-05 09:14:00,
2013-01-05 04:19:00,29.9,21.3,30.01,West,274,9.4,9.4,70,0.00,SCT,,0.00,WeatherDisplay:10.37,2013-01-05 09:19:00,
2013-01-05 04:24:00,30.0,21.4,30.01,West,278,10.4,10.4,70,0.00,SCT,,0.00,WeatherDisplay:10.37,2013-01-05 09:24:00,
2013-01-05 04:29:00,29.9,21.3,30.01,SW,234,6.9,6.9,70,0.00,SCT,,0.00,WeatherDisplay:10.37,2013-01-05 09:29:00,
2013-01-05 04:34:00,30.0,21.4,30.01,NW,323,9.2,9.2,70,0.00,SCT,,0.00,WeatherDisplay:10.37,2013-01-05 09:34:00,
2013-01-05 04:39:00,29.9,21.7,30.02,WNW,298,6.9,6.9,71,0.00,SCT,,0.00,WeatherDisplay:10.37,2013-01-05 09:39:00,
2013-01-05 04:44:00,30.0,21.8,30.01,West,272,8.1,8.1,71,0.00,SCT,,0.00,WeatherDisplay:10.37,2013-01-05 09:44:00,
2013-01-05 04:49:00,29.9,21.7,30.02,North,352,9.2,9.2,71,0.00,SCT,,0.00,WeatherDisplay:10.37,2013-01-05 09:49:00,
2013-01-05 04:54:00,30.0,21.8,30.02,NNW,330,10.4,10.4,71,0.00,SCT,,0.00,WeatherDisplay:10.37,2013-01-05 09:54:00,
2013-01-05 04:59:00,30.0,21.8,30.02,NNW,333,10.4,10.4,71,0.00,SCT,,0.00,WeatherDisplay:10.37,2013-01-05 09:59:00,
2013-01-05 05:04:00,29.9,21.7,30.02,NNW,330,5.8,5.8,71,0.00,CLR,,0.00,WeatherDisplay:10.37,2013-01-05 10:04:00,
2013-01-05 05:09:00,29.9,21.7,30.03,WNW,302,6.9,6.9,71,0.00,CLR,,0.00,WeatherDisplay:10.37,2013-01-05 10:09:00,
2013-01-05 05:14:00,30.0,21.8,30.03,North,352,3.6,3.6,71,0.00,CLR,,0.00,WeatherDisplay:10.37,2013-01-05 10:14:00,
2013-01-05 05:19:00,30.1,21.9,30.03,West,261,10.4,10.4,71,0.00,CLR,,0.00,WeatherDisplay:10.37,2013-01-05 10:19:00,
2013-01-05 05:24:00,29.9,21.7,30.04,NW,318,9.2,9.2,71,0.00,CLR,,0.00,WeatherDisplay:10.37,2013-01-05 10:24:00,
2013-01-05 05:29:00,30.0,21.8,30.04,North,10,3.5,3.5,71,0.00,CLR,,0.00,WeatherDisplay:10.37,2013-01-05 10:29:00,
2013-01-05 05:34:00,30.1,21.9,30.05,NW,305,6.9,6.9,71,0.00,CLR,,0.00,WeatherDisplay:10.37,2013-01-05 10:34:00,
2013-01-05 05:39:00,30.0,21.8,30.06,NW,315,5.8,5.8,71,0.00,CLR,,0.00,WeatherDisplay:10.37,2013-01-05 10:39:00,
2013-01-05 05:44:00,30.2,22.0,30.06,WNW,298,4.6,4.6,71,0.00,CLR,,0.00,WeatherDisplay:10.37,2013-01-05 10:44:00,
2013-01-05 05:49:00,30.1,22.2,30.06,West,267,11.5,11.5,72,0.00,CLR,,0.00,WeatherDisplay:10.37,2013-01-05 10:49:00,
2013-01-05 05:54:00,30.5,22.3,30.06,NNW,328,6.9,6.9,71,0.00,CLR,,0.00,WeatherDisplay:10.37,2013-01-05 10:54:00,
2013-01-05 05:59:00,30.4,22.5,30.06,NNW,337,8.1,8.1,72,0.00,CLR,,0.00,WeatherDisplay:10.37,2013-01-05 10:59:00,
2013-01-05 06:04:00,30.3,22.4,30.07,West,280,9.2,9.2,72,0.00,CLR,,0.00,WeatherDisplay:10.37,2013-01-05 11:04:00,
2013-01-05 06:09:00,30.4,22.5,30.07,NNW,333,5.8,5.8,72,0.00,CLR,,0.00,WeatherDisplay:10.37,2013-01-05 11:09:00,
2013-01-05 06:14:00,30.4,22.5,30.07,NW,318,2.9,2.9,72,0.00,CLR,,0.00,WeatherDisplay:10.37,2013-01-05 11:14:00,
2013-01-05 06:19:00,30.1,22.2,30.07,WNW,295,5.8,5.9,72,0.00,CLR,,0.00,WeatherDisplay:10.37,2013-01-05 11:19:00,
2013-01-05 06:24:00,30.1,22.2,30.08,NW,308,2.8,2.8,72,0.00,CLR,,0.00,WeatherDisplay:10.37,2013-01-05 11:24:00,
2013-01-05 06:29:00,29.8,22.2,30.08,WNW,295,6.9,6.9,73,0.00,CLR,,0.00,WeatherDisplay:10.37,2013-01-05 11:29:00,
2013-01-05 06:34:00,29.9,22.7,30.09,NNW,337,9.2,9.2,74,0.00,CLR,,0.00,WeatherDisplay:10.37,2013-01-05 11:34:00,
2013-01-05 06:39:00,29.8,22.6,30.09,NW,320,6.9,6.9,74,0.00,CLR,,0.00,WeatherDisplay:10.37,2013-01-05 11:39:00,
2013-01-05 06:44:00,29.9,22.7,30.10,NW,309,4.6,4.6,74,0.00,CLR,,0.00,WeatherDisplay:10.37,2013-01-05 11:44:00,
2013-01-05 06:49:00,30.1,22.8,30.10,West,280,8.4,8.4,74,0.00,CLR,,0.00,WeatherDisplay:10.37,2013-01-05 11:49:00,
2013-01-05 06:54:00,30.3,23.0,30.10,WNW,287,8.1,8.1,74,0.00,CLR,,0.00,WeatherDisplay:10.37,2013-01-05 11:54:00,
2013-01-05 06:59:00,30.4,23.1,30.10,WNW,292,10.4,10.4,74,0.00,CLR,,0.00,WeatherDisplay:10.37,2013-01-05 11:59:00,
2013-01-05 07:04:00,30.5,22.9,30.10,NW,320,6.9,6.9,73,0.00,CLR,,0.00,WeatherDisplay:10.37,2013-01-05 12:04:00,
2013-01-05 07:09:00,30.1,22.5,30.11,SW,219,5.8,5.8,73,0.00,CLR,,0.00,WeatherDisplay:10.37,2013-01-05 12:09:00,
2013-01-05 07:14:00,30.2,22.9,30.11,NW,325,6.9,6.9,74,0.00,CLR,,0.00,WeatherDisplay:10.37,2013-01-05 12:14:00,
2013-01-05 07:19:00,30.2,22.9,30.11,WSW,251,1.3,1.5,74,0.00,CLR,,0.00,WeatherDisplay:10.37,2013-01-05 12:19:00,
2013-01-05 07:24:00,30.0,22.8,30.11,WSW,251,0.0,0.0,74,0.00,CLR,,0.00,WeatherDisplay:10.37,2013-01-05 12:24:00,
2013-01-05 07:29:00,29.9,22.7,30.11,West,263,6.9,6.9,74,0.00,CLR,,0.00,WeatherDisplay:10.37,2013-01-05 12:29:00,
2013-01-05 07:34:00,29.9,22.7,30.12,West,277,5.8,5.8,74,0.00,CLR,,0.00,WeatherDisplay:10.37,2013-01-05 12:34:00,
2013-01-05 07:39:00,30.0,22.8,30.12,West,264,3.5,3.5,74,0.00,CLR,,0.00,WeatherDisplay:10.37,2013-01-05 12:39:00,
2013-01-05 07:44:00,30.2,23.3,30.13,West,264,3.5,3.5,75,0.00,CLR,,0.00,WeatherDisplay:10.37,2013-01-05 12:44:00,
2013-01-05 07:49:00,30.0,23.1,30.12,West,275,2.3,2.3,75,0.00,CLR,,0.00,WeatherDisplay:10.37,2013-01-05 12:49:00,
2013-01-05 07:54:00,30.1,22.8,30.13,West,264,6.9,6.9,74,0.00,CLR,,0.00,WeatherDisplay:10.37,2013-01-05 12:54:00,
2013-01-05 07:59:00,30.5,23.2,30.13,WNW,285,5.3,5.3,74,0.00,CLR,,0.00,WeatherDisplay:10.37,2013-01-05 12:59:00,
2013-01-05 08:04:00,30.7,23.1,30.13,West,278,5.8,5.8,73,0.00,CLR,,0.00,WeatherDisplay:10.37,2013-01-05 13:04:00,
2013-01-05 08:09:00,30.7,23.1,30.13,WNW,288,6.9,6.9,73,0.00,CLR,,0.00,WeatherDisplay:10.37,2013-01-05 13:09:00,
2013-01-05 08:14:00,31.0,23.4,30.14,West,271,4.6,4.6,73,0.00,CLR,,0.00,WeatherDisplay:10.37,2013-01-05 13:14:00,
2013-01-05 08:19:00,31.2,23.3,30.14,NW,318,5.8,5.8,72,0.00,CLR,,0.00,WeatherDisplay:10.37,2013-01-05 13:19:00,
2013-01-05 08:24:00,31.3,23.0,30.14,NNW,344,6.9,6.9,71,0.00,CLR,,0.00,WeatherDisplay:10.37,2013-01-05 13:24:00,
2013-01-05 08:29:00,31.5,23.2,30.15,NW,319,6.9,6.9,71,0.00,CLR,,0.00,WeatherDisplay:10.37,2013-01-05 13:29:00,
2013-01-05 08:34:00,31.8,23.2,30.15,NW,306,4.6,4.6,70,0.00,CLR,,0.00,WeatherDisplay:10.37,2013-01-05 13:34:00,
2013-01-05 08:39:00,32.0,23.4,30.15,West,264,6.9,6.9,70,0.00,CLR,,0.00,WeatherDisplay:10.37,2013-01-05 13:39:00,
2013-01-05 08:44:00,32.8,23.4,30.15,North,354,9.2,9.2,68,0.00,CLR,,0.00,WeatherDisplay:10.37,2013-01-05 13:44:00,
2013-01-05 08:49:00,32.9,23.5,30.15,WNW,284,8.9,8.9,68,0.00,CLR,,0.00,WeatherDisplay:10.37,2013-01-05 13:49:00,
2013-01-05 08:54:00,33.4,23.3,30.15,West,264,10.8,10.8,66,0.00,CLR,,0.00,WeatherDisplay:10.37,2013-01-05 13:54:00,
2013-01-05 08:59:00,33.7,23.6,30.14,NW,309,11.5,11.5,66,0.00,CLR,,0.00,WeatherDisplay:10.37,2013-01-05 13:59:00,
2013-01-05 09:04:00,33.8,23.3,30.14,SSW,209,11.5,11.5,65,0.00,FEW,,0.00,WeatherDisplay:10.37,2013-01-05 14:04:00,
2013-01-05 09:09:00,34.1,23.6,30.14,WNW,295,5.8,5.8,65,0.00,FEW,,0.00,WeatherDisplay:10.37,2013-01-05 14:09:00,
2013-01-05 09:15:00,34.3,23.4,30.15,West,268,8.1,8.1,64,0.00,FEW,,0.00,WeatherDisplay:10.37,2013-01-05 14:15:00,
2013-01-05 09:20:00,34.7,23.8,30.15,West,260,1.1,0.0,64,0.00,FEW,,0.00,WeatherDisplay:10.37,2013-01-05 14:20:00,
2013-01-05 09:25:00,34.8,23.1,30.15,North,353,9.2,9.2,62,0.00,FEW,,0.00,WeatherDisplay:10.37,2013-01-05 14:25:00,
2013-01-05 09:30:00,35.4,23.3,30.16,NW,309,13.8,13.8,61,0.00,FEW,,0.00,WeatherDisplay:10.37,2013-01-05 14:30:00,
2013-01-05 09:35:00,35.6,23.5,30.16,NW,320,6.7,6.7,61,0.00,FEW,,0.00,WeatherDisplay:10.37,2013-01-05 14:35:00,
2013-01-05 09:40:00,35.8,23.7,30.17,WNW,296,9.2,9.2,61,0.00,FEW,,0.00,WeatherDisplay:10.37,2013-01-05 14:40:00,
2013-01-05 09:45:00,36.3,24.2,30.17,NNW,344,7.5,7.5,61,0.00,FEW,,0.00,WeatherDisplay:10.37,2013-01-05 14:45:00,
2013-01-05 09:50:00,36.4,23.9,30.17,ENE,59,4.6,4.6,60,0.00,FEW,,0.00,WeatherDisplay:10.37,2013-01-05 14:50:00,
2013-01-05 09:55:00,36.7,24.1,30.17,NNE,18,8.1,8.1,60,0.00,FEW,,0.00,WeatherDisplay:10.37,2013-01-05 14:55:00,
2013-01-05 10:00:00,36.7,24.1,30.17,NNW,332,8.1,8.1,60,0.00,FEW,,0.00,WeatherDisplay:10.37,2013-01-05 15:00:00,
2013-01-05 10:05:00,36.3,24.2,30.18,NNW,335,12.7,12.7,61,0.00,CLR,,0.00,WeatherDisplay:10.37,2013-01-05 15:05:00,
2013-01-05 10:10:00,36.4,24.6,30.18,West,267,12.7,12.7,62,0.00,CLR,,0.00,WeatherDisplay:10.37,2013-01-05 15:10:00,
2013-01-05 10:15:00,36.7,24.1,30.18,NNW,337,10.4,10.4,60,0.00,CLR,,0.00,WeatherDisplay:10.37,2013-01-05 15:15:00,
2013-01-05 10:20:00,37.1,24.5,30.19,NW,312,8.1,8.1,60,0.00,CLR,,0.00,WeatherDisplay:10.37,2013-01-05 15:20:00,
2013-01-05 10:25:00,37.4,24.4,30.19,WNW,302,6.9,6.9,59,0.00,CLR,,0.00,WeatherDisplay:10.37,2013-01-05 15:25:00,
2013-01-05 10:30:00,37.6,24.2,30.19,NW,315,9.2,9.2,58,0.00,CLR,,0.00,WeatherDisplay:10.37,2013-01-05 15:30:00,
2013-01-05 10:35:00,37.7,24.7,30.19,NNW,332,9.2,9.2,59,0.00,CLR,,0.00,WeatherDisplay:10.37,2013-01-05 15:35:00,
2013-01-05 10:40:00,37.5,24.5,30.18,WNW,292,5.8,5.8,59,0.00,CLR,,0.00,WeatherDisplay:10.37,2013-01-05 15:40:00,
2013-01-05 10:45:00,37.5,24.5,30.18,NNE,21,10.4,10.4,59,0.00,CLR,,0.00,WeatherDisplay:10.37,2013-01-05 15:45:00,
2013-01-05 10:50:00,37.6,25.0,30.19,SSW,196,10.4,10.4,60,0.00,CLR,,0.00,WeatherDisplay:10.37,2013-01-05 15:50:00,
2013-01-05 10:55:00,37.4,24.8,30.19,NNE,20,6.9,6.9,60,0.00,CLR,,0.00,WeatherDisplay:10.37,2013-01-05 15:55:00,
2013-01-05 11:00:00,37.7,25.1,30.19,North,352,12.7,12.7,60,0.00,CLR,,0.00,WeatherDisplay:10.37,2013-01-05 16:00:00,
2013-01-05 11:05:00,38.0,25.0,30.19,NNW,333,11.5,11.5,59,0.00,SCT,,0.00,WeatherDisplay:10.37,2013-01-05 16:05:00,
2013-01-05 11:10:00,38.4,24.9,30.19,NNW,347,15.0,15.0,58,0.00,SCT,,0.00,WeatherDisplay:10.37,2013-01-05 16:10:00,
2013-01-05 11:15:00,38.2,24.7,30.19,NW,304,15.0,15.0,58,0.00,SCT,,0.00,WeatherDisplay:10.37,2013-01-05 16:15:00,
2013-01-05 11:20:00,38.1,24.7,30.19,NNW,335,12.7,12.7,58,0.00,SCT,,0.00,WeatherDisplay:10.37,2013-01-05 16:20:00,
2013-01-05 11:25:00,38.2,25.2,30.19,WNW,291,11.5,11.5,59,0.00,SCT,,0.00,WeatherDisplay:10.37,2013-01-05 16:25:00,
2013-01-05 11:30:00,38.2,25.2,30.19,NNE,17,8.1,8.1,59,0.00,SCT,,0.00,WeatherDisplay:10.37,2013-01-05 16:30:00,
2013-01-05 11:35:00,38.4,25.3,30.20,North,350,10.4,10.4,59,0.00,SCT,,0.00,WeatherDisplay:10.37,2013-01-05 16:35:00,
2013-01-05 11:40:00,38.9,25.8,30.20,North,359,11.2,11.2,59,0.00,SCT,,0.00,WeatherDisplay:10.37,2013-01-05 16:40:00,
2013-01-05 11:45:00,38.9,25.0,30.19,NNW,344,8.1,8.1,57,0.00,SCT,,0.00,WeatherDisplay:10.37,2013-01-05 16:45:00,
2013-01-05 11:50:00,38.9,25.0,30.18,West,278,11.5,11.5,57,0.00,SCT,,0.00,WeatherDisplay:10.37,2013-01-05 16:50:00,
2013-01-05 11:55:00,38.5,25.0,30.18,NNW,335,5.8,5.8,58,0.00,SCT,,0.00,WeatherDisplay:10.37,2013-01-05 16:55:00,
2013-01-05 12:00:00,38.3,24.4,30.18,WNW,289,12.7,12.7,57,0.00,SCT,,0.00,WeatherDisplay:10.37,2013-01-05 17:00:00,
2013-01-05 12:05:00,38.2,24.7,30.18,North,360,8.1,8.1,58,0.00,SCT,,0.00,WeatherDisplay:10.37,2013-01-05 17:05:00,
2013-01-05 12:10:00,38.5,25.0,30.17,NW,326,9.2,9.2,58,0.00,SCT,,0.00,WeatherDisplay:10.37,2013-01-05 17:10:00,
2013-01-05 12:15:00,38.7,25.2,30.16,NNW,330,7.3,7.3,58,0.00,SCT,,0.00,WeatherDisplay:10.37,2013-01-05 17:15:00,
2013-01-05 12:20:00,39.0,25.1,30.16,WNW,288,6.9,6.9,57,0.00,FEW,,0.00,WeatherDisplay:10.37,2013-01-05 17:20:00,
2013-01-05 12:25:00,38.9,25.0,30.16,West,260,11.5,11.5,57,0.00,FEW,,0.00,WeatherDisplay:10.37,2013-01-05 17:25:00,
2013-01-05 12:30:00,39.0,24.7,30.16,NNE,18,6.9,6.9,56,0.00,FEW,,0.00,WeatherDisplay:10.37,2013-01-05 17:30:00,
2013-01-05 12:35:00,39.0,25.1,30.17,NNW,344,2.3,2.3,57,0.00,FEW,,0.00,WeatherDisplay:10.37,2013-01-05 17:35:00,
2013-01-05 12:40:00,39.0,24.7,30.17,NNE,16,12.7,12.7,56,0.00,FEW,,0.00,WeatherDisplay:10.37,2013-01-05 17:40:00,
2013-01-05 12:45:00,39.1,25.2,30.17,North,352,4.2,4.2,57,0.00,FEW,,0.00,WeatherDisplay:10.37,2013-01-05 17:45:00,
2013-01-05 12:50:00,39.4,24.6,30.16,WNW,288,11.5,11.5,55,0.00,FEW,,0.00,WeatherDisplay:10.37,2013-01-05 17:50:00,
2013-01-05 12:55:00,39.0,25.1,30.16,WNW,285,12.7,12.7,57,0.00,FEW,,0.00,WeatherDisplay:10.37,2013-01-05 17:55:00,
2013-01-05 13:00:00,38.9,25.0,30.16,NW,309,3.5,3.5,57,0.00,FEW,,0.00,WeatherDisplay:10.37,2013-01-05 18:00:00,
2013-01-05 13:05:00,39.1,25.2,30.16,North,349,5.8,5.8,57,0.00,CLR,,0.00,WeatherDisplay:10.37,2013-01-05 18:05:00,
2013-01-05 13:10:00,39.1,24.7,30.16,NNW,347,8.1,8.1,56,0.00,CLR,,0.00,WeatherDisplay:10.37,2013-01-05 18:10:00,
2013-01-05 13:15:00,39.0,24.7,30.16,ESE,106,11.5,11.5,56,0.00,CLR,,0.00,WeatherDisplay:10.37,2013-01-05 18:15:00,
2013-01-05 13:20:00,38.9,24.6,30.15,NE,38,6.4,6.4,56,0.00,CLR,,0.00,WeatherDisplay:10.37,2013-01-05 18:20:00,
2013-01-05 13:25:00,38.8,24.5,30.15,NW,320,4.6,4.6,56,0.00,CLR,,0.00,WeatherDisplay:10.37,2013-01-05 18:25:00,
2013-01-05 13:30:00,38.7,24.4,30.15,NNW,342,10.4,10.4,56,0.00,CLR,,0.00,WeatherDisplay:10.37,2013-01-05 18:30:00,
2013-01-05 13:35:00,38.6,24.3,30.15,ENE,71,12.7,12.7,56,0.00,CLR,,0.00,WeatherDisplay:10.37,2013-01-05 18:35:00,
2013-01-05 13:40:00,38.2,23.9,30.14,NNE,23,10.4,10.4,56,0.00,CLR,,0.00,WeatherDisplay:10.37,2013-01-05 18:40:00,
2013-01-05 13:45:00,38.7,24.4,30.15,WNW,282,5.8,5.8,56,0.00,CLR,,0.00,WeatherDisplay:10.37,2013-01-05 18:45:00,
2013-01-05 13:50:00,38.8,23.6,30.15,ENE,73,2.4,2.4,54,0.00,CLR,,0.00,WeatherDisplay:10.37,2013-01-05 18:50:00,
2013-01-05 13:55:00,38.8,24.5,30.15,NNW,333,3.5,3.5,56,0.00,CLR,,0.00,WeatherDisplay:10.37,2013-01-05 18:55:00,
2013-01-05 14:00:00,39.0,23.8,30.15,NNW,332,12.7,12.7,54,0.00,CLR,,0.00,WeatherDisplay:10.37,2013-01-05 19:00:00,
2013-01-05 14:05:00,38.7,23.5,30.15,NW,322,9.2,9.2,54,0.00,CLR,,0.00,WeatherDisplay:10.37,2013-01-05 19:05:00,
2013-01-05 14:10:00,38.7,23.9,30.16,NNW,330,11.5,11.5,55,0.00,CLR,,0.00,WeatherDisplay:10.37,2013-01-05 19:10:00,
2013-01-05 14:15:00,38.7,24.4,30.16,WNW,285,7.2,7.2,56,0.00,CLR,,0.00,WeatherDisplay:10.37,2013-01-05 19:15:00,
2013-01-05 14:20:00,38.7,23.5,30.16,NE,37,8.1,8.1,54,0.00,CLR,,0.00,WeatherDisplay:10.37,2013-01-05 19:20:00,
2013-01-05 14:25:00,39.0,23.8,30.17,North,7,6.9,6.9,54,0.00,CLR,,0.00,WeatherDisplay:10.37,2013-01-05 19:25:00,
2013-01-05 14:30:00,38.8,23.6,30.17,North,4,11.5,11.5,54,0.00,CLR,,0.00,WeatherDisplay:10.37,2013-01-05 19:30:00,
2013-01-05 14:35:00,38.5,23.3,30.17,WNW,287,6.9,6.9,54,0.00,CLR,,0.00,WeatherDisplay:10.37,2013-01-05 19:35:00,
2013-01-05 14:40:00,38.3,23.6,30.17,NNE,25,4.6,4.6,55,0.00,CLR,,0.00,WeatherDisplay:10.37,2013-01-05 19:40:00,
2013-01-05 14:45:00,38.4,24.1,30.17,SE,131,2.8,2.8,56,0.00,CLR,,0.00,WeatherDisplay:10.37,2013-01-05 19:45:00,
2013-01-05 14:50:00,38.6,23.8,30.18,ENE,62,0.0,0.0,55,0.00,CLR,,0.00,WeatherDisplay:10.37,2013-01-05 19:50:00,
2013-01-05 14:55:00,38.4,23.7,30.18,NW,320,5.8,5.8,55,0.00,CLR,,0.00,WeatherDisplay:10.37,2013-01-05 19:55:00,
2013-01-05 15:00:00,38.1,23.8,30.19,WNW,291,1.1,0.0,56,0.00,CLR,,0.00,WeatherDisplay:10.37,2013-01-05 20:00:00,
2013-01-05 15:05:00,38.2,23.5,30.19,NW,312,3.5,3.5,55,0.00,CLR,,0.00,WeatherDisplay:10.37,2013-01-05 20:05:00,
2013-01-05 15:10:00,38.1,22.9,30.19,NW,312,0.0,0.0,54,0.00,CLR,,0.00,WeatherDisplay:10.37,2013-01-05 20:10:00,
2013-01-05 15:15:00,38.1,22.9,30.19,North,353,5.8,5.8,54,0.00,CLR,,0.00,WeatherDisplay:10.37,2013-01-05 20:15:00,
2013-01-05 15:20:00,38.2,23.0,30.19,NE,47,3.5,3.5,54,0.00,CLR,,0.00,WeatherDisplay:10.37,2013-01-05 20:20:00,
2013-01-05 15:25:00,38.1,22.9,30.18,WNW,284,4.6,4.6,54,0.00,CLR,,0.00,WeatherDisplay:10.37,2013-01-05 20:25:00,
2013-01-05 15:30:00,37.9,23.2,30.19,NNW,340,5.8,5.8,55,0.00,CLR,,0.00,WeatherDisplay:10.37,2013-01-05 20:30:00,
2013-01-05 15:35:00,37.9,23.2,30.19,NW,320,8.1,8.1,55,0.00,CLR,,0.00,WeatherDisplay:10.37,2013-01-05 20:35:00,
2013-01-05 15:40:00,37.7,23.0,30.19,NE,42,4.6,0.0,55,0.00,CLR,,0.00,WeatherDisplay:10.37,2013-01-05 20:40:00,
2013-01-05 15:45:00,37.6,23.3,30.19,NE,42,0.0,0.0,56,0.00,CLR,,0.00,WeatherDisplay:10.37,2013-01-05 20:45:00,
2013-01-05 15:50:00,37.3,23.1,30.20,NW,304,4.6,4.6,56,0.00,CLR,,0.00,WeatherDisplay:10.37,2013-01-05 20:50:00,
2013-01-05 15:55:00,37.1,22.9,30.19,NNE,32,6.9,6.9,56,0.00,CLR,,0.00,WeatherDisplay:10.37,2013-01-05 20:55:00,
2013-01-05 16:00:00,37.0,22.8,30.19,ENE,69,0.0,0.0,56,0.00,CLR,,0.00,WeatherDisplay:10.37,2013-01-05 21:00:00,
2013-01-05 16:05:00,36.8,23.0,30.19,ENE,69,0.0,0.0,57,0.00,CLR,,0.00,WeatherDisplay:10.37,2013-01-05 21:05:00,
2013-01-05 16:10:00,36.4,22.6,30.19,ENE,69,0.0,0.0,57,0.00,CLR,,0.00,WeatherDisplay:10.37,2013-01-05 21:10:00,
2013-01-05 16:15:00,36.4,22.6,30.19,ENE,69,0.0,0.0,57,0.00,CLR,,0.00,WeatherDisplay:10.37,2013-01-05 21:15:00,
2013-01-05 16:20:00,36.1,22.4,30.19,ENE,69,0.0,0.0,57,0.00,CLR,,0.00,WeatherDisplay:10.37,2013-01-05 21:20:00,
2013-01-05 16:25:00,35.9,22.6,30.19,ENE,69,0.0,0.0,58,0.00,CLR,,0.00,WeatherDisplay:10.37,2013-01-05 21:25:00,
2013-01-05 16:30:00,35.7,22.4,30.19,ENE,69,0.0,0.0,58,0.00,CLR,,0.00,WeatherDisplay:10.37,2013-01-05 21:30:00,
2013-01-05 16:35:00,35.4,22.5,30.20,ENE,69,0.0,0.0,59,0.00,CLR,,0.00,WeatherDisplay:10.37,2013-01-05 21:35:00,
2013-01-05 16:40:00,35.1,22.2,30.21,ENE,69,0.0,0.0,59,0.00,CLR,,0.00,WeatherDisplay:10.37,2013-01-05 21:40:00,
2013-01-05 16:45:00,34.6,21.8,30.21,ENE,69,0.0,0.0,59,0.00,CLR,,0.00,WeatherDisplay:10.37,2013-01-05 21:45:00,
2013-01-05 16:50:00,34.7,22.3,30.21,ENE,69,0.0,0.0,60,0.00,CLR,,0.00,WeatherDisplay:10.37,2013-01-05 21:50:00,
2013-01-05 16:55:00,34.3,21.9,30.21,ENE,69,0.0,0.0,60,0.00,CLR,,0.00,WeatherDisplay:10.37,2013-01-05 21:55:00,
2013-01-05 17:00:00,33.9,21.9,30.21,ENE,69,0.0,0.0,61,0.00,CLR,,0.00,WeatherDisplay:10.37,2013-01-05 22:00:00,
2013-01-05 17:05:00,33.8,21.8,30.21,ENE,69,0.0,0.0,61,0.00,CLR,,0.00,WeatherDisplay:10.37,2013-01-05 22:05:00,
2013-01-05 17:10:00,32.9,21.3,30.21,ENE,69,0.0,0.0,62,0.00,CLR,,0.00,WeatherDisplay:10.37,2013-01-05 22:10:00,
2013-01-05 17:15:00,32.9,21.7,30.22,ENE,69,0.0,0.0,63,0.00,CLR,,0.00,WeatherDisplay:10.37,2013-01-05 22:15:00,
2013-01-05 17:20:00,32.5,21.3,30.22,ENE,69,0.0,0.0,63,0.00,CLR,,0.00,WeatherDisplay:10.37,2013-01-05 22:20:00,
2013-01-05 17:25:00,32.0,21.2,30.22,ENE,69,0.0,0.0,64,0.00,CLR,,0.00,WeatherDisplay:10.37,2013-01-05 22:25:00,
2013-01-05 17:30:00,31.6,21.2,30.22,ENE,69,0.0,0.0,65,0.00,CLR,,0.00,WeatherDisplay:10.37,2013-01-05 22:30:00,
2013-01-05 17:35:00,31.8,21.8,30.22,ENE,69,0.0,0.0,66,0.00,CLR,,0.00,WeatherDisplay:10.37,2013-01-05 22:35:00,
2013-01-05 17:40:00,31.4,21.4,30.23,ENE,69,0.0,0.0,66,0.00,CLR,,0.00,WeatherDisplay:10.37,2013-01-05 22:40:00,
2013-01-05 17:45:00,31.2,21.5,30.23,ENE,69,0.0,0.0,67,0.00,CLR,,0.00,WeatherDisplay:10.37,2013-01-05 22:45:00,
2013-01-05 17:50:00,30.9,21.3,30.24,ENE,69,0.0,0.0,67,0.00,CLR,,0.00,WeatherDisplay:10.37,2013-01-05 22:50:00,
2013-01-05 17:55:00,30.9,21.6,30.24,ENE,69,0.0,0.0,68,0.00,CLR,,0.00,WeatherDisplay:10.37,2013-01-05 22:55:00,
2013-01-05 18:00:00,30.6,21.3,30.23,ENE,69,0.0,0.0,68,0.00,CLR,,0.00,WeatherDisplay:10.37,2013-01-05 23:00:00,
2013-01-05 18:05:00,30.3,21.4,30.24,ENE,69,0.0,0.0,69,0.00,CLR,,0.00,WeatherDisplay:10.37,2013-01-05 23:05:00,
2013-01-05 18:10:00,30.2,21.3,30.24,ENE,69,0.0,0.0,69,0.00,CLR,,0.00,WeatherDisplay:10.37,2013-01-05 23:10:00,
2013-01-05 18:15:00,30.5,21.6,30.23,ENE,69,0.0,0.0,69,0.00,CLR,,0.00,WeatherDisplay:10.37,2013-01-05 23:15:00,
2013-01-05 18:20:00,30.6,21.7,30.24,ENE,69,0.0,0.0,69,0.00,CLR,,0.00,WeatherDisplay:10.37,2013-01-05 23:20:00,
2013-01-05 18:25:00,30.3,21.7,30.25,ENE,69,0.0,0.0,70,0.00,CLR,,0.00,WeatherDisplay:10.37,2013-01-05 23:25:00,
2013-01-05 18:30:00,29.9,21.3,30.24,ENE,69,0.0,0.0,70,0.00,CLR,,0.00,WeatherDisplay:10.37,2013-01-05 23:30:00,
2013-01-05 18:35:00,29.8,21.2,30.25,ENE,69,0.0,0.0,70,0.00,CLR,,0.00,WeatherDisplay:10.37,2013-01-05 23:35:00,
2013-01-05 18:40:00,29.9,21.7,30.23,ENE,69,0.0,0.0,71,0.00,CLR,,0.00,WeatherDisplay:10.37,2013-01-05 23:40:00,
2013-01-05 18:45:00,29.9,21.7,30.23,ENE,69,0.0,0.0,71,0.00,CLR,,0.00,WeatherDisplay:10.37,2013-01-05 23:45:00,
2013-01-05 18:50:00,29.8,21.6,30.25,ENE,69,0.0,0.0,71,0.00,CLR,,0.00,WeatherDisplay:10.37,2013-01-05 23:50:00,
2013-01-05 18:55:00,29.6,21.4,30.25,ENE,69,0.0,0.0,71,0.00,CLR,,0.00,WeatherDisplay:10.37,2013-01-05 23:55:00,
2013-01-05 19:00:00,29.3,21.4,30.24,ENE,69,0.0,0.0,72,0.00,CLR,,0.00,WeatherDisplay:10.37,2013-01-06 00:00:00,
2013-01-05 19:05:00,29.4,21.5,30.23,ENE,69,0.0,0.0,72,0.00,CLR,,0.00,WeatherDisplay:10.37,2013-01-06 00:05:00,
2013-01-05 19:10:00,29.6,21.7,30.22,ENE,69,0.0,0.0,72,0.00,CLR,,0.00,WeatherDisplay:10.37,2013-01-06 00:10:00,
2013-01-05 19:15:00,29.4,21.5,30.22,ENE,69,0.0,0.0,72,0.00,CLR,,0.00,WeatherDisplay:10.37,2013-01-06 00:15:00,
2013-01-05 19:20:00,29.3,21.4,30.24,ENE,69,0.0,0.0,72,0.00,CLR,,0.00,WeatherDisplay:10.37,2013-01-06 00:20:00,
2013-01-05 19:25:00,29.0,21.5,30.22,ENE,69,0.0,0.0,73,0.00,CLR,,0.00,WeatherDisplay:10.37,2013-01-06 00:25:00,
2013-01-05 19:30:00,28.7,21.2,30.23,ENE,69,0.0,0.0,73,0.00,CLR,,0.00,WeatherDisplay:10.37,2013-01-06 00:30:00,
2013-01-05 19:35:00,28.6,21.4,30.23,ENE,69,0.0,0.0,74,0.00,CLR,,0.00,WeatherDisplay:10.37,2013-01-06 00:35:00,
2013-01-05 19:40:00,28.4,21.5,30.23,ENE,69,0.0,0.0,75,0.00,CLR,,0.00,WeatherDisplay:10.37,2013-01-06 00:40:00,
2013-01-05 19:45:00,28.0,21.1,30.23,ENE,69,0.0,0.0,75,0.00,CLR,,0.00,WeatherDisplay:10.37,2013-01-06 00:45:00,
2013-01-05 19:50:00,28.0,21.1,30.23,ENE,69,0.0,0.0,75,0.00,CLR,,0.00,WeatherDisplay:10.37,2013-01-06 00:50:00,
2013-01-05 19:55:00,27.7,21.2,30.23,ENE,69,0.0,0.0,76,0.00,CLR,,0.00,WeatherDisplay:10.37,2013-01-06 00:55:00,
2013-01-05 20:00:00,27.6,21.1,30.23,ENE,69,0.0,0.0,76,0.00,CLR,,0.00,WeatherDisplay:10.37,2013-01-06 01:00:00,
2013-01-05 20:05:00,27.5,21.0,30.22,ENE,69,0.0,0.0,76,0.00,CLR,,0.00,WeatherDisplay:10.37,2013-01-06 01:05:00,
2013-01-05 20:10:00,27.6,21.1,30.22,ENE,69,0.0,0.0,76,0.00,CLR,,0.00,WeatherDisplay:10.37,2013-01-06 01:10:00,
2013-01-05 20:15:00,27.4,20.9,30.22,ENE,69,0.0,0.0,76,0.00,CLR,,0.00,WeatherDisplay:10.37,2013-01-06 01:15:00,
2013-01-05 20:20:00,27.4,21.2,30.23,ENE,69,0.0,0.0,77,0.00,CLR,,0.00,WeatherDisplay:10.37,2013-01-06 01:20:00,
2013-01-05 20:25:00,27.4,21.2,30.23,ENE,69,0.0,0.0,77,0.00,CLR,,0.00,WeatherDisplay:10.37,2013-01-06 01:25:00,
2013-01-05 20:30:00,27.2,21.0,30.23,ENE,69,0.0,0.0,77,0.00,CLR,,0.00,WeatherDisplay:10.37,2013-01-06 01:30:00,
2013-01-05 20:35:00,27.1,20.9,30.23,ENE,69,0.0,0.0,77,0.00,CLR,,0.00,WeatherDisplay:10.37,2013-01-06 01:35:00,
2013-01-05 20:40:00,27.0,21.1,30.23,ENE,69,0.0,0.0,78,0.00,CLR,,0.00,WeatherDisplay:10.37,2013-01-06 01:40:00,
2013-01-05 20:45:00,27.0,21.1,30.23,ENE,69,0.0,0.0,78,0.00,CLR,,0.00,WeatherDisplay:10.37,2013-01-06 01:45:00,
2013-01-05 20:50:00,26.8,20.9,30.22,ENE,69,0.0,0.0,78,0.00,CLR,,0.00,WeatherDisplay:10.37,2013-01-06 01:50:00,
2013-01-05 20:55:00,26.6,21.0,30.22,ENE,69,0.0,0.0,79,0.00,CLR,,0.00,WeatherDisplay:10.37,2013-01-06 01:55:00,
2013-01-05 21:00:00,26.5,20.9,30.22,ENE,69,0.0,0.0,79,0.00,CLR,,0.00,WeatherDisplay:10.37,2013-01-06 02:00:00,
2013-01-05 21:05:00,26.2,20.6,30.23,ENE,69,0.0,0.0,79,0.00,CLR,,0.00,WeatherDisplay:10.37,2013-01-06 02:05:00,
2013-01-05 21:10:00,26.2,20.9,30.22,ENE,69,0.0,0.0,80,0.00,CLR,,0.00,WeatherDisplay:10.37,2013-01-06 02:10:00,
2013-01-05 21:15:00,26.0,20.7,30.22,ENE,69,0.0,0.0,80,0.00,CLR,,0.00,WeatherDisplay:10.37,2013-01-06 02:15:00,
2013-01-05 21:20:00,25.9,20.6,30.21,ENE,69,0.0,0.0,80,0.00,CLR,,0.00,WeatherDisplay:10.37,2013-01-06 02:20:00,
2013-01-05 21:25:00,25.9,20.9,30.22,ENE,69,0.0,0.0,81,0.00,CLR,,0.00,WeatherDisplay:10.37,2013-01-06 02:25:00,
2013-01-05 21:30:00,25.7,20.7,30.22,ENE,69,0.0,0.0,81,0.00,CLR,,0.00,WeatherDisplay:10.37,2013-01-06 02:30:00,
2013-01-05 21:35:00,25.7,21.0,30.22,ENE,69,0.0,0.0,82,0.00,CLR,,0.00,WeatherDisplay:10.37,2013-01-06 02:35:00,
2013-01-05 21:40:00,25.8,21.1,30.22,ENE,69,0.0,0.0,82,0.00,CLR,,0.00,WeatherDisplay:10.37,2013-01-06 02:40:00,
2013-01-05 21:45:00,26.1,21.4,30.22,ENE,69,0.0,0.0,82,0.00,CLR,,0.00,WeatherDisplay:10.37,2013-01-06 02:45:00,
2013-01-05 21:50:00,25.9,21.2,30.21,ENE,69,0.0,0.0,82,0.00,CLR,,0.00,WeatherDisplay:10.37,2013-01-06 02:50:00,
2013-01-05 21:55:00,26.1,21.4,30.21,ENE,69,0.0,0.0,82,0.00,CLR,,0.00,WeatherDisplay:10.37,2013-01-06 02:55:00,
2013-01-05 22:00:00,25.9,21.2,30.20,ENE,69,0.0,0.0,82,0.00,CLR,,0.00,WeatherDisplay:10.37,2013-01-06 03:00:00,
2013-01-05 22:05:00,25.8,21.1,30.20,ENE,69,0.0,0.0,82,0.00,CLR,,0.00,WeatherDisplay:10.37,2013-01-06 03:05:00,
2013-01-05 22:10:00,25.7,21.0,30.20,ENE,69,0.0,0.0,82,0.00,CLR,,0.00,WeatherDisplay:10.37,2013-01-06 03:10:00,
2013-01-05 22:15:00,25.6,20.9,30.20,ENE,69,0.0,0.0,82,0.00,CLR,,0.00,WeatherDisplay:10.37,2013-01-06 03:15:00,
2013-01-05 22:20:00,25.7,21.0,30.20,ENE,69,0.0,0.0,82,0.00,CLR,,0.00,WeatherDisplay:10.37,2013-01-06 03:20:00,
2013-01-05 22:25:00,25.7,21.0,30.20,ENE,69,0.0,0.0,82,0.00,CLR,,0.00,WeatherDisplay:10.37,2013-01-06 03:25:00,
2013-01-05 22:30:00,25.7,21.0,30.19,ENE,69,0.0,0.0,82,0.00,CLR,,0.00,WeatherDisplay:10.37,2013-01-06 03:30:00,
2013-01-05 22:35:00,25.8,21.1,30.20,ENE,69,0.0,0.0,82,0.00,CLR,,0.00,WeatherDisplay:10.37,2013-01-06 03:35:00,
2013-01-05 22:40:00,25.9,21.2,30.19,ENE,69,0.0,0.0,82,0.00,CLR,,0.00,WeatherDisplay:10.37,2013-01-06 03:40:00,
2013-01-05 22:45:00,25.9,21.2,30.19,ENE,69,0.0,0.0,82,0.00,CLR,,0.00,WeatherDisplay:10.37,2013-01-06 03:45:00,
2013-01-05 22:50:00,26.1,21.4,30.19,ENE,69,0.0,0.0,82,0.00,CLR,,0.00,WeatherDisplay:10.37,2013-01-06 03:50:00,
2013-01-05 22:55:00,26.1,21.4,30.18,ENE,69,0.0,0.0,82,0.00,CLR,,0.00,WeatherDisplay:10.37,2013-01-06 03:55:00,
2013-01-05 23:00:00,26.1,21.4,30.18,ENE,69,0.0,0.0,82,0.00,CLR,,0.00,WeatherDisplay:10.37,2013-01-06 04:00:00,
2013-01-05 23:05:00,26.5,21.8,30.18,ENE,69,0.0,0.0,82,0.00,CLR,,0.00,WeatherDisplay:10.37,2013-01-06 04:05:00,
2013-01-05 23:10:00,26.2,21.5,30.19,ENE,69,0.0,0.0,82,0.00,CLR,,0.00,WeatherDisplay:10.37,2013-01-06 04:10:00,
2013-01-05 23:15:00,26.4,21.7,30.19,ENE,69,0.0,0.0,82,0.00,CLR,,0.00,WeatherDisplay:10.37,2013-01-06 04:15:00,
2013-01-05 23:20:00,26.4,21.7,30.19,ENE,69,0.0,0.0,82,0.00,CLR,,0.00,WeatherDisplay:10.37,2013-01-06 04:20:00,
2013-01-05 23:25:00,26.5,21.8,30.19,ENE,69,0.0,0.0,82,0.00,CLR,,0.00,WeatherDisplay:10.37,2013-01-06 04:25:00,
2013-01-05 23:30:00,26.6,21.9,30.18,ENE,69,0.0,0.0,82,0.00,CLR,,0.00,WeatherDisplay:10.37,2013-01-06 04:30:00,
2013-01-05 23:35:00,26.5,21.8,30.18,ENE,69,0.0,0.0,82,0.00,CLR,,0.00,WeatherDisplay:10.37,2013-01-06 04:35:00,
2013-01-05 23:40:00,26.6,21.9,30.17,ENE,69,0.0,0.0,82,0.00,CLR,,0.00,WeatherDisplay:10.37,2013-01-06 04:40:00,
2013-01-05 23:45:00,26.8,22.1,30.17,ENE,69,0.0,0.0,82,0.00,CLR,,0.00,WeatherDisplay:10.37,2013-01-06 04:45:00,
2013-01-05 23:50:00,26.6,21.9,30.17,ENE,69,0.0,0.0,82,0.00,CLR,,0.00,WeatherDisplay:10.37,2013-01-06 04:50:00,
2013-01-05 23:55:00,26.4,21.7,30.18,ENE,69,0.0,0.0,82,0.00,CLR,,0.00,WeatherDisplay:10.37,2013-01-06 04:55:00,